sensor_id;sensor_type;location;lat;lon;timestamp;temperature;humidity
19033;DHT22;9649;51.042;13.804;2023-04-03T00:01:02;4.10;1.00
19033;DHT22;9649;51.042;13.804;2023-04-03T00:06:05;3.90;1.00
19033;DHT22;9649;51.042;13.804;2023-04-03T00:11:10;3.90;1.00
19033;DHT22;9649;51.042;13.804;2023-04-03T00:16:12;3.90;1.00
19033;DHT22;9649;51.042;13.804;2023-04-03T00:21:15;3.80;1.00
19033;DHT22;9649;51.042;13.804;2023-04-03T00:26:19;3.80;1.00
19033;DHT22;9649;51.042;13.804;2023-04-03T00:31:22;3.70;1.00
19033;DHT22;9649;51.042;13.804;2023-04-03T00:36:25;3.60;1.00
19033;DHT22;9649;51.042;13.804;2023-04-03T00:41:29;3.50;1.00
19033;DHT22;9649;51.042;13.804;2023-04-03T00:46:32;3.60;1.00
19033;DHT22;9649;51.042;13.804;2023-04-03T00:51:35;3.70;1.00
19033;DHT22;9649;51.042;13.804;2023-04-03T00:56:39;3.70;1.00
19033;DHT22;9649;51.042;13.804;2023-04-03T01:01:43;3.60;1.00
19033;DHT22;9649;51.042;13.804;2023-04-03T01:06:46;3.40;1.00
19033;DHT22;9649;51.042;13.804;2023-04-03T01:11:50;3.50;1.00
19033;DHT22;9649;51.042;13.804;2023-04-03T01:16:53;3.30;1.00
19033;DHT22;9649;51.042;13.804;2023-04-03T01:22:05;3.20;1.00
19033;DHT22;9649;51.042;13.804;2023-04-03T01:27:19;3.10;1.00
19033;DHT22;9649;51.042;13.804;2023-04-03T01:32:23;3.10;1.00
19033;DHT22;9649;51.042;13.804;2023-04-03T01:37:26;2.90;1.00
19033;DHT22;9649;51.042;13.804;2023-04-03T01:42:29;3.00;1.00
19033;DHT22;9649;51.042;13.804;2023-04-03T01:47:33;2.80;1.00
19033;DHT22;9649;51.042;13.804;2023-04-03T01:52:36;2.80;1.00
19033;DHT22;9649;51.042;13.804;2023-04-03T01:57:38;2.80;1.00
19033;DHT22;9649;51.042;13.804;2023-04-03T02:02:42;2.50;1.00
19033;DHT22;9649;51.042;13.804;2023-04-03T02:07:46;2.30;1.00
19033;DHT22;9649;51.042;13.804;2023-04-03T02:12:48;2.30;98.30
19033;DHT22;9649;51.042;13.804;2023-04-03T02:17:53;2.30;99.90
19033;DHT22;9649;51.042;13.804;2023-04-03T02:22:56;2.20;1.00
19033;DHT22;9649;51.042;13.804;2023-04-03T02:27:58;2.10;99.90
19033;DHT22;9649;51.042;13.804;2023-04-03T02:33:02;1.90;99.90
19033;DHT22;9649;51.042;13.804;2023-04-03T02:38:05;1.90;99.90
19033;DHT22;9649;51.042;13.804;2023-04-03T02:43:08;1.80;99.90
19033;DHT22;9649;51.042;13.804;2023-04-03T02:48:12;1.80;99.90
19033;DHT22;9649;51.042;13.804;2023-04-03T02:53:16;1.60;99.90
19033;DHT22;9649;51.042;13.804;2023-04-03T02:58:19;1.40;1.00
19033;DHT22;9649;51.042;13.804;2023-04-03T03:03:23;1.20;1.00
19033;DHT22;9649;51.042;13.804;2023-04-03T03:08:25;1.00;99.90
19033;DHT22;9649;51.042;13.804;2023-04-03T03:13:29;0.60;1.00
19033;DHT22;9649;51.042;13.804;2023-04-03T03:18:33;0.60;1.00
19033;DHT22;9649;51.042;13.804;2023-04-03T03:23:36;0.70;1.00
19033;DHT22;9649;51.042;13.804;2023-04-03T03:28:40;0.50;1.00
19033;DHT22;9649;51.042;13.804;2023-04-03T03:33:44;0.40;1.00
19033;DHT22;9649;51.042;13.804;2023-04-03T03:38:47;0.30;1.00
19033;DHT22;9649;51.042;13.804;2023-04-03T03:43:49;0.20;1.00
19033;DHT22;9649;51.042;13.804;2023-04-03T03:48:53;0.10;1.00
19033;DHT22;9649;51.042;13.804;2023-04-03T03:53:56;0.00;99.90
19033;DHT22;9649;51.042;13.804;2023-04-03T03:58:59;0.00;99.90
19033;DHT22;9649;51.042;13.804;2023-04-03T04:04:03;-0.10;1.00
19033;DHT22;9649;51.042;13.804;2023-04-03T04:09:06;-0.10;1.00
19033;DHT22;9649;51.042;13.804;2023-04-03T04:14:09;-0.10;1.00
19033;DHT22;9649;51.042;13.804;2023-04-03T04:19:15;-0.30;1.00
19033;DHT22;9649;51.042;13.804;2023-04-03T04:24:18;-0.30;99.90
19033;DHT22;9649;51.042;13.804;2023-04-03T04:29:21;0.00;83.00
19033;DHT22;9649;51.042;13.804;2023-04-03T04:34:25;-0.30;1.00
19033;DHT22;9649;51.042;13.804;2023-04-03T04:39:28;-0.30;1.00
19033;DHT22;9649;51.042;13.804;2023-04-03T04:44:30;-0.40;1.00
19033;DHT22;9649;51.042;13.804;2023-04-03T04:49:35;-0.50;98.00
19033;DHT22;9649;51.042;13.804;2023-04-03T04:54:37;-0.50;1.00
19033;DHT22;9649;51.042;13.804;2023-04-03T04:59:40;-0.60;1.00
19033;DHT22;9649;51.042;13.804;2023-04-03T05:04:44;-0.30;1.00
19033;DHT22;9649;51.042;13.804;2023-04-03T05:09:47;-0.40;99.90
19033;DHT22;9649;51.042;13.804;2023-04-03T05:14:50;-0.40;99.90
19033;DHT22;9649;51.042;13.804;2023-04-03T05:19:54;-0.20;1.00
19033;DHT22;9649;51.042;13.804;2023-04-03T05:24:56;-0.10;1.00
19033;DHT22;9649;51.042;13.804;2023-04-03T05:29:59;-0.10;99.90
19033;DHT22;9649;51.042;13.804;2023-04-03T05:35:04;0.20;99.90
19033;DHT22;9649;51.042;13.804;2023-04-03T05:40:09;0.20;99.90
19033;DHT22;9649;51.042;13.804;2023-04-03T05:45:12;0.30;61.20
19033;DHT22;9649;51.042;13.804;2023-04-03T05:50:16;0.60;1.00
19033;DHT22;9649;51.042;13.804;2023-04-03T05:55:19;0.90;99.90
19033;DHT22;9649;51.042;13.804;2023-04-03T06:00:22;1.30;1.00
19033;DHT22;9649;51.042;13.804;2023-04-03T06:05:26;1.50;1.00
19033;DHT22;9649;51.042;13.804;2023-04-03T06:10:29;1.90;1.00
19033;DHT22;9649;51.042;13.804;2023-04-03T06:15:32;2.40;99.90
19033;DHT22;9649;51.042;13.804;2023-04-03T06:20:36;3.00;1.00
19033;DHT22;9649;51.042;13.804;2023-04-03T06:25:39;3.90;99.90
19033;DHT22;9649;51.042;13.804;2023-04-03T06:30:43;4.70;1.00
19033;DHT22;9649;51.042;13.804;2023-04-03T06:35:47;5.10;99.90
19033;DHT22;9649;51.042;13.804;2023-04-03T06:40:50;5.30;99.90
19033;DHT22;9649;51.042;13.804;2023-04-03T06:45:53;5.00;99.90
19033;DHT22;9649;51.042;13.804;2023-04-03T06:50:57;4.60;99.90
19033;DHT22;9649;51.042;13.804;2023-04-03T06:56:00;4.70;99.90
19033;DHT22;9649;51.042;13.804;2023-04-03T07:01:03;4.80;99.90
19033;DHT22;9649;51.042;13.804;2023-04-03T07:06:09;5.10;99.90
19033;DHT22;9649;51.042;13.804;2023-04-03T07:11:13;5.30;99.90
19033;DHT22;9649;51.042;13.804;2023-04-03T07:16:15;5.50;89.60
19033;DHT22;9649;51.042;13.804;2023-04-03T07:21:20;5.50;81.10
19033;DHT22;9649;51.042;13.804;2023-04-03T07:26:22;5.90;1.00
19033;DHT22;9649;51.042;13.804;2023-04-03T07:31:25;6.40;1.00
19033;DHT22;9649;51.042;13.804;2023-04-03T07:36:29;6.50;1.00
19033;DHT22;9649;51.042;13.804;2023-04-03T07:41:34;6.60;1.00
19033;DHT22;9649;51.042;13.804;2023-04-03T07:46:37;6.60;1.00
19033;DHT22;9649;51.042;13.804;2023-04-03T07:51:41;6.70;1.00
19033;DHT22;9649;51.042;13.804;2023-04-03T07:56:44;6.70;1.00
19033;DHT22;9649;51.042;13.804;2023-04-03T08:01:47;6.90;1.00
19033;DHT22;9649;51.042;13.804;2023-04-03T08:06:51;6.80;1.00
19033;DHT22;9649;51.042;13.804;2023-04-03T08:11:53;6.90;1.00
19033;DHT22;9649;51.042;13.804;2023-04-03T08:16:56;7.30;1.00
19033;DHT22;9649;51.042;13.804;2023-04-03T08:22:01;7.50;1.00
19033;DHT22;9649;51.042;13.804;2023-04-03T08:27:04;7.60;1.00
19033;DHT22;9649;51.042;13.804;2023-04-03T08:32:08;7.30;1.00
19033;DHT22;9649;51.042;13.804;2023-04-03T08:37:12;7.50;1.00
19033;DHT22;9649;51.042;13.804;2023-04-03T08:42:24;7.30;1.00
19033;DHT22;9649;51.042;13.804;2023-04-03T08:47:38;7.30;1.00
19033;DHT22;9649;51.042;13.804;2023-04-03T08:52:45;7.10;1.00
19033;DHT22;9649;51.042;13.804;2023-04-03T08:57:53;7.10;1.00
19033;DHT22;9649;51.042;13.804;2023-04-03T09:02:57;8.20;1.00
19033;DHT22;9649;51.042;13.804;2023-04-03T09:08:05;9.10;1.00
19033;DHT22;9649;51.042;13.804;2023-04-03T09:13:17;8.30;1.00
19033;DHT22;9649;51.042;13.804;2023-04-03T09:18:26;7.60;1.00
19033;DHT22;9649;51.042;13.804;2023-04-03T09:23:36;10.10;1.00
19033;DHT22;9649;51.042;13.804;2023-04-03T09:28:43;10.50;1.00
19033;DHT22;9649;51.042;13.804;2023-04-03T09:33:53;12.90;1.00
19033;DHT22;9649;51.042;13.804;2023-04-03T09:39:04;12.50;1.00
19033;DHT22;9649;51.042;13.804;2023-04-03T09:44:21;12.90;1.00
19033;DHT22;9649;51.042;13.804;2023-04-03T09:49:24;11.50;99.90
19033;DHT22;9649;51.042;13.804;2023-04-03T09:54:36;13.50;1.00
19033;DHT22;9649;51.042;13.804;2023-04-03T09:59:45;14.20;99.90
19033;DHT22;9649;51.042;13.804;2023-04-03T10:04:48;14.40;99.90
19033;DHT22;9649;51.042;13.804;2023-04-03T10:10:18;21.40;99.90
19033;DHT22;9649;51.042;13.804;2023-04-03T10:15:22;29.70;99.90
19033;DHT22;9649;51.042;13.804;2023-04-03T10:20:33;26.10;99.90
19033;DHT22;9649;51.042;13.804;2023-04-03T10:25:43;18.00;99.90
19033;DHT22;9649;51.042;13.804;2023-04-03T10:30:50;13.80;99.90
19033;DHT22;9649;51.042;13.804;2023-04-03T10:36:04;12.70;99.90
19033;DHT22;9649;51.042;13.804;2023-04-03T10:41:16;13.40;99.90
19033;DHT22;9649;51.042;13.804;2023-04-03T10:46:27;14.50;99.90
19033;DHT22;9649;51.042;13.804;2023-04-03T10:51:37;13.40;99.90
19033;DHT22;9649;51.042;13.804;2023-04-03T10:56:48;12.10;99.90
19033;DHT22;9649;51.042;13.804;2023-04-03T11:02:07;18.50;99.90
19033;DHT22;9649;51.042;13.804;2023-04-03T11:07:17;15.00;99.90
19033;DHT22;9649;51.042;13.804;2023-04-03T11:12:26;13.00;99.90
19033;DHT22;9649;51.042;13.804;2023-04-03T11:17:35;11.50;99.90
19033;DHT22;9649;51.042;13.804;2023-04-03T11:22:41;11.90;99.90
19033;DHT22;9649;51.042;13.804;2023-04-03T11:27:48;12.70;99.90
19033;DHT22;9649;51.042;13.804;2023-04-03T11:33:04;12.70;99.90
19033;DHT22;9649;51.042;13.804;2023-04-03T11:38:15;13.30;99.90
19033;DHT22;9649;51.042;13.804;2023-04-03T11:43:26;15.50;99.90
19033;DHT22;9649;51.042;13.804;2023-04-03T11:48:49;13.90;99.90
19033;DHT22;9649;51.042;13.804;2023-04-03T11:53:52;12.70;99.90
19033;DHT22;9649;51.042;13.804;2023-04-03T11:59:22;13.10;99.90
19033;DHT22;9649;51.042;13.804;2023-04-03T12:04:27;15.40;99.90
19033;DHT22;9649;51.042;13.804;2023-04-03T12:14:54;12.10;99.90
19033;DHT22;9649;51.042;13.804;2023-04-03T12:19:57;11.40;99.90
19033;DHT22;9649;51.042;13.804;2023-04-03T12:30:42;11.20;99.90
19033;DHT22;9649;51.042;13.804;2023-04-03T12:35:55;10.70;99.90
19033;DHT22;9649;51.042;13.804;2023-04-03T12:41:23;10.70;99.90
19033;DHT22;9649;51.042;13.804;2023-04-03T12:46:37;10.50;99.90
19033;DHT22;9649;51.042;13.804;2023-04-03T12:51:44;10.20;99.90
19033;DHT22;9649;51.042;13.804;2023-04-03T12:56:47;10.00;99.90
19033;DHT22;9649;51.042;13.804;2023-04-03T13:01:56;9.40;99.90
19033;DHT22;9649;51.042;13.804;2023-04-03T13:06:59;9.10;99.90
19033;DHT22;9649;51.042;13.804;2023-04-03T13:12:07;9.50;99.90
19033;DHT22;9649;51.042;13.804;2023-04-03T13:17:16;10.70;99.90
19033;DHT22;9649;51.042;13.804;2023-04-03T13:22:26;13.00;99.90
19033;DHT22;9649;51.042;13.804;2023-04-03T13:27:31;12.60;99.90
19033;DHT22;9649;51.042;13.804;2023-04-03T13:32:36;11.70;99.90
19033;DHT22;9649;51.042;13.804;2023-04-03T13:37:38;10.80;99.90
19033;DHT22;9649;51.042;13.804;2023-04-03T13:42:41;9.90;99.90
19033;DHT22;9649;51.042;13.804;2023-04-03T13:47:47;9.60;99.90
19033;DHT22;9649;51.042;13.804;2023-04-03T13:52:53;9.90;99.90
19033;DHT22;9649;51.042;13.804;2023-04-03T13:57:59;10.30;99.90
19033;DHT22;9649;51.042;13.804;2023-04-03T14:03:12;12.70;99.90
19033;DHT22;9649;51.042;13.804;2023-04-03T14:08:16;16.70;99.90
19033;DHT22;9649;51.042;13.804;2023-04-03T14:13:22;18.30;99.90
19033;DHT22;9649;51.042;13.804;2023-04-03T14:18:26;16.40;99.90
19033;DHT22;9649;51.042;13.804;2023-04-03T14:23:29;12.60;99.90
19033;DHT22;9649;51.042;13.804;2023-04-03T14:28:33;10.60;99.90
19033;DHT22;9649;51.042;13.804;2023-04-03T14:33:37;9.70;99.90
19033;DHT22;9649;51.042;13.804;2023-04-03T14:38:40;9.30;99.90
19033;DHT22;9649;51.042;13.804;2023-04-03T14:43:44;9.30;99.90
19033;DHT22;9649;51.042;13.804;2023-04-03T14:48:48;9.50;99.90
19033;DHT22;9649;51.042;13.804;2023-04-03T14:53:52;11.80;99.90
19033;DHT22;9649;51.042;13.804;2023-04-03T14:58:57;11.20;99.90
19033;DHT22;9649;51.042;13.804;2023-04-03T15:04:08;9.60;99.90
19033;DHT22;9649;51.042;13.804;2023-04-03T15:09:19;8.60;99.90
19033;DHT22;9649;51.042;13.804;2023-04-03T15:14:22;8.30;99.90
19033;DHT22;9649;51.042;13.804;2023-04-03T15:19:44;8.30;99.90
19033;DHT22;9649;51.042;13.804;2023-04-03T15:24:47;8.10;99.90
19033;DHT22;9649;51.042;13.804;2023-04-03T15:29:49;8.10;99.90
19033;DHT22;9649;51.042;13.804;2023-04-03T15:34:54;9.50;99.90
19033;DHT22;9649;51.042;13.804;2023-04-03T15:39:57;10.60;99.90
19033;DHT22;9649;51.042;13.804;2023-04-03T15:45:00;9.20;99.90
19033;DHT22;9649;51.042;13.804;2023-04-03T15:50:05;8.40;99.90
19033;DHT22;9649;51.042;13.804;2023-04-03T15:55:12;7.90;99.90
19033;DHT22;9649;51.042;13.804;2023-04-03T16:00:16;7.70;99.90
19033;DHT22;9649;51.042;13.804;2023-04-03T16:05:20;7.40;99.90
19033;DHT22;9649;51.042;13.804;2023-04-03T16:10:23;7.20;99.90
19033;DHT22;9649;51.042;13.804;2023-04-03T16:15:26;6.90;99.90
19033;DHT22;9649;51.042;13.804;2023-04-03T16:20:31;6.80;99.90
19033;DHT22;9649;51.042;13.804;2023-04-03T16:25:34;6.60;99.90
19033;DHT22;9649;51.042;13.804;2023-04-03T16:30:37;6.60;99.90
19033;DHT22;9649;51.042;13.804;2023-04-03T16:35:41;6.60;99.90
19033;DHT22;9649;51.042;13.804;2023-04-03T16:40:45;6.70;99.90
19033;DHT22;9649;51.042;13.804;2023-04-03T16:45:48;6.50;99.90
19033;DHT22;9649;51.042;13.804;2023-04-03T16:50:52;6.30;99.90
19033;DHT22;9649;51.042;13.804;2023-04-03T16:55:59;6.10;1.00
19033;DHT22;9649;51.042;13.804;2023-04-03T17:01:09;6.00;1.00
19033;DHT22;9649;51.042;13.804;2023-04-03T17:06:17;5.90;1.00
19033;DHT22;9649;51.042;13.804;2023-04-03T17:11:29;5.80;1.00
19033;DHT22;9649;51.042;13.804;2023-04-03T17:16:34;5.50;1.00
19033;DHT22;9649;51.042;13.804;2023-04-03T17:21:46;5.00;1.00
19033;DHT22;9649;51.042;13.804;2023-04-03T17:26:50;4.60;1.00
19033;DHT22;9649;51.042;13.804;2023-04-03T17:31:55;4.00;1.00
19033;DHT22;9649;51.042;13.804;2023-04-03T17:37:02;3.70;1.00
19033;DHT22;9649;51.042;13.804;2023-04-03T17:42:05;3.40;1.00
19033;DHT22;9649;51.042;13.804;2023-04-03T17:47:08;3.60;1.00
19033;DHT22;9649;51.042;13.804;2023-04-03T17:52:12;3.70;1.00
19033;DHT22;9649;51.042;13.804;2023-04-03T17:57:15;3.60;1.00
19033;DHT22;9649;51.042;13.804;2023-04-03T18:02:18;3.30;1.00
19033;DHT22;9649;51.042;13.804;2023-04-03T18:07:23;2.90;1.00
19033;DHT22;9649;51.042;13.804;2023-04-03T18:12:26;2.80;1.00
19033;DHT22;9649;51.042;13.804;2023-04-03T18:17:29;2.70;1.00
19033;DHT22;9649;51.042;13.804;2023-04-03T18:22:33;2.50;1.00
19033;DHT22;9649;51.042;13.804;2023-04-03T18:27:36;2.40;1.00
19033;DHT22;9649;51.042;13.804;2023-04-03T18:32:39;2.80;1.00
19033;DHT22;9649;51.042;13.804;2023-04-03T18:37:43;2.90;1.00
19033;DHT22;9649;51.042;13.804;2023-04-03T18:42:46;2.80;1.00
19033;DHT22;9649;51.042;13.804;2023-04-03T18:47:49;2.70;1.00
19033;DHT22;9649;51.042;13.804;2023-04-03T18:52:53;2.60;1.00
19033;DHT22;9649;51.042;13.804;2023-04-03T18:57:56;2.40;1.00
19033;DHT22;9649;51.042;13.804;2023-04-03T19:02:58;2.40;1.00
19033;DHT22;9649;51.042;13.804;2023-04-03T19:08:03;2.40;1.00
19033;DHT22;9649;51.042;13.804;2023-04-03T19:13:06;2.60;1.00
19033;DHT22;9649;51.042;13.804;2023-04-03T19:18:09;2.70;1.00
19033;DHT22;9649;51.042;13.804;2023-04-03T19:23:13;2.80;1.00
19033;DHT22;9649;51.042;13.804;2023-04-03T19:28:17;2.80;1.00
19033;DHT22;9649;51.042;13.804;2023-04-03T19:33:20;2.80;1.00
19033;DHT22;9649;51.042;13.804;2023-04-03T19:38:24;2.80;1.00
19033;DHT22;9649;51.042;13.804;2023-04-03T19:43:27;2.90;1.00
19033;DHT22;9649;51.042;13.804;2023-04-03T19:48:29;3.00;1.00
19033;DHT22;9649;51.042;13.804;2023-04-03T19:53:33;3.20;1.00
19033;DHT22;9649;51.042;13.804;2023-04-03T19:58:36;3.20;1.00
19033;DHT22;9649;51.042;13.804;2023-04-03T20:03:39;3.10;1.00
19033;DHT22;9649;51.042;13.804;2023-04-03T20:08:44;3.10;1.00
19033;DHT22;9649;51.042;13.804;2023-04-03T20:13:48;3.10;1.00
19033;DHT22;9649;51.042;13.804;2023-04-03T20:18:51;3.20;1.00
19033;DHT22;9649;51.042;13.804;2023-04-03T20:23:57;3.10;1.00
19033;DHT22;9649;51.042;13.804;2023-04-03T20:29:00;3.20;1.00
19033;DHT22;9649;51.042;13.804;2023-04-03T20:34:03;3.30;1.00
19033;DHT22;9649;51.042;13.804;2023-04-03T20:39:07;3.20;1.00
19033;DHT22;9649;51.042;13.804;2023-04-03T20:44:10;3.30;1.00
19033;DHT22;9649;51.042;13.804;2023-04-03T20:49:13;3.20;1.00
19033;DHT22;9649;51.042;13.804;2023-04-03T20:54:18;3.20;1.00
19033;DHT22;9649;51.042;13.804;2023-04-03T20:59:20;3.10;6.10
19033;DHT22;9649;51.042;13.804;2023-04-03T21:04:30;3.10;99.90
19033;DHT22;9649;51.042;13.804;2023-04-03T21:20:52;3.10;99.90
19033;DHT22;9649;51.042;13.804;2023-04-03T21:25:55;3.10;99.90
19033;DHT22;9649;51.042;13.804;2023-04-03T21:30:58;3.00;99.90
19033;DHT22;9649;51.042;13.804;2023-04-03T21:36:01;3.10;1.00
19033;DHT22;9649;51.042;13.804;2023-04-03T21:41:04;3.10;1.00
19033;DHT22;9649;51.042;13.804;2023-04-03T21:46:07;3.10;1.00
19033;DHT22;9649;51.042;13.804;2023-04-03T21:51:11;3.10;1.00
19033;DHT22;9649;51.042;13.804;2023-04-03T21:56:14;3.20;1.00
19033;DHT22;9649;51.042;13.804;2023-04-03T22:01:17;3.30;1.00
19033;DHT22;9649;51.042;13.804;2023-04-03T22:06:22;3.30;1.00
19033;DHT22;9649;51.042;13.804;2023-04-03T22:11:25;3.30;99.90
19033;DHT22;9649;51.042;13.804;2023-04-03T22:16:29;3.30;1.00
19033;DHT22;9649;51.042;13.804;2023-04-03T22:21:33;3.30;99.90
19033;DHT22;9649;51.042;13.804;2023-04-03T22:26:36;3.30;99.90
19033;DHT22;9649;51.042;13.804;2023-04-03T22:31:41;3.20;99.90
19033;DHT22;9649;51.042;13.804;2023-04-03T22:36:45;3.20;99.90
19033;DHT22;9649;51.042;13.804;2023-04-03T22:41:48;3.30;99.90
19033;DHT22;9649;51.042;13.804;2023-04-03T22:46:50;3.30;99.90
19033;DHT22;9649;51.042;13.804;2023-04-03T22:51:54;3.20;99.90
19033;DHT22;9649;51.042;13.804;2023-04-03T22:56:57;3.30;99.90
19033;DHT22;9649;51.042;13.804;2023-04-03T23:02:00;3.30;99.90
19033;DHT22;9649;51.042;13.804;2023-04-03T23:07:05;3.30;99.90
19033;DHT22;9649;51.042;13.804;2023-04-03T23:12:07;3.20;99.90
19033;DHT22;9649;51.042;13.804;2023-04-03T23:17:10;3.30;99.90
19033;DHT22;9649;51.042;13.804;2023-04-03T23:22:14;3.20;99.90
19033;DHT22;9649;51.042;13.804;2023-04-03T23:27:17;3.20;1.00
19033;DHT22;9649;51.042;13.804;2023-04-03T23:32:19;3.10;1.00
19033;DHT22;9649;51.042;13.804;2023-04-03T23:37:23;3.20;1.00
19033;DHT22;9649;51.042;13.804;2023-04-03T23:42:26;3.10;1.00
19033;DHT22;9649;51.042;13.804;2023-04-03T23:47:29;3.20;1.00
19033;DHT22;9649;51.042;13.804;2023-04-03T23:52:33;3.20;1.00
19033;DHT22;9649;51.042;13.804;2023-04-03T23:57:36;3.10;1.00
